Time;durP1;ratioP1;P1;durP2;ratioP2;P2;SDS_P1;SDS_P2;PMS_P1;PMS_P2;Temp;Humidity;BMP_temperature;BMP_pressure;BME280_temperature;BME280_humidity;BME280_pressure;Samples;Min_cycle;Max_cycle;Signal;HPM_P1;HPM_P2
2023/12/22 05:38:54;;;;;;;;;;;;;;;-0.14;100.00;97741.79;108193;1277;23094;-47
2023/12/22 05:41:21;;;;;;;;;;;;;;;-0.13;100.00;97737.84;109063;1270;22535;-53
2023/12/22 05:43:48;;;;;;;;;;;;;;;-0.13;100.00;97732.35;109476;1269;22556;-51
2023/12/22 05:46:14;;;;;;;;;;;;;;;-0.11;100.00;97727.23;110120;1269;22458;-47
2023/12/22 05:48:41;;;;;;;;;;;;;;;-0.10;100.00;97730.66;108782;1269;22622;-46
2023/12/22 05:51:13;;;;;;;;;;;;;;;-0.07;100.00;97720.02;107364;1264;22559;-52
2023/12/22 05:53:40;;;;;;;;;;;;;;;-0.03;100.00;97723.63;110028;1269;22421;-53
2023/12/22 05:56:22;;;;;;;;;;;;;;;0.01;100.00;97722.96;110048;1271;22442;-52
2023/12/22 05:58:49;;;;;;;;;;;;;;;0.06;100.00;97718.84;110074;1269;22550;-51
2023/12/22 06:01:16;;;;;;;;;;;;;;;0.11;100.00;97713.88;110085;1269;22490;-47
2023/12/22 06:03:43;;;;;;;;;;;;;;;0.17;100.00;97720.23;110011;1271;22551;-52
2023/12/22 06:06:09;;;;;;;;;;;;;;;0.24;100.00;97721.42;110054;1265;22473;-53
2023/12/22 06:08:36;;;;;;;;;;;;;;;0.30;100.00;97713.37;108409;1272;22508;-46
2023/12/22 06:11:22;;;;;;;;;;;;;;;0.34;100.00;97716.45;109713;1268;22494;-48
2023/12/22 06:13:48;;;;;;;;;;;;;;;0.37;100.00;97708.22;110027;1268;22447;-52
2023/12/22 06:16:15;;;;;;;;;;;;;;;0.39;100.00;97709.59;110030;1270;23288;-48
2023/12/22 06:18:41;;;;;;;;;;;;;;;0.40;100.00;97711.64;109277;1272;22601;-48
2023/12/22 06:21:09;;;;;;;;;;;;;;;0.41;100.00;97712.85;109443;1272;22519;-48
2023/12/22 06:23:36;;;;;;;;;;;;;;;0.44;100.00;97718.33;109987;1268;22559;-53
2023/12/22 06:26:12;;;;;;;;;;;;;;;0.48;100.00;97711.64;109862;1265;22488;-53
2023/12/22 06:28:39;;;;;;;;;;;;;;;0.53;100.00;97705.63;109812;1272;22432;-52
2023/12/22 06:31:06;;;;;;;;;;;;;;;0.59;100.00;97706.30;109515;1270;23300;-53
2023/12/22 06:33:33;;;;;;;;;;;;;;;0.64;100.00;97715.05;109724;1272;22455;-53
2023/12/22 06:36:00;;;;;;;;;;;;;;;0.68;100.00;97709.55;109642;1269;23171;-52
2023/12/22 06:38:30;;;;;;;;;;;;;;;0.71;100.00;97703.02;109632;1273;22599;-47
2023/12/22 06:40:57;;;;;;;;;;;;;;;0.74;100.00;97697.52;109658;1273;22498;-46
2023/12/22 06:43:24;;;;;;;;;;;;;;;0.78;100.00;97695.46;109699;1267;22596;-52
2023/12/22 06:45:54;;;;;;;;;;;;;;;0.81;100.00;97692.70;109871;1272;22484;-47
2023/12/22 06:48:26;;;;;;;;;;;;;;;0.83;100.00;97686.19;109185;1275;22610;-47
2023/12/22 06:50:53;;;;;;;;;;;;;;;0.85;100.00;97681.53;109821;1269;22559;-47
2023/12/22 06:53:20;;;;;;;;;;;;;;;0.86;100.00;97679.13;109459;1277;23801;-53
2023/12/22 06:55:52;;;;;;;;;;;;;;;0.88;100.00;97676.73;109938;1266;22446;-53
2023/12/22 06:58:21;;;;;;;;;;;;;;;0.90;100.00;97678.27;109924;1268;22452;-47
2023/12/22 07:00:47;;;;;;;;;;;;;;;0.92;100.00;97678.77;109770;1262;22467;-47
2023/12/22 07:03:16;;;;;;;;;;;;;;;0.94;100.00;97679.46;109877;1269;22950;-48
2023/12/22 07:05:42;;;;;;;;;;;;;;;0.96;100.00;97679.95;109681;1279;22480;-52
2023/12/22 07:08:09;;;;;;;;;;;;;;;0.97;100.00;97679.60;109836;1269;22720;-52
2023/12/22 07:10:36;;;;;;;;;;;;;;;1.00;100.00;97669.99;109806;1273;22468;-52
2023/12/22 07:13:02;;;;;;;;;;;;;;;1.04;100.00;97674.78;109792;1269;22421;-46
2023/12/22 07:15:29;;;;;;;;;;;;;;;1.09;100.00;97675.95;109805;1268;22563;-47
2023/12/22 07:17:56;;;;;;;;;;;;;;;1.11;100.00;97679.56;109654;1266;22571;-52
2023/12/22 07:20:23;;;;;;;;;;;;;;;1.11;100.00;97679.91;109843;1272;22464;-52
2023/12/22 07:22:50;;;;;;;;;;;;;;;1.12;100.00;97668.77;109728;1272;22539;-53
2023/12/22 07:25:19;;;;;;;;;;;;;;;1.13;100.00;97677.67;109817;1269;23091;-52
2023/12/22 07:27:46;;;;;;;;;;;;;;;1.16;100.00;97667.70;109873;1268;22869;-52
2023/12/22 07:30:15;;;;;;;;;;;;;;;1.18;100.00;97669.75;109452;1276;22765;-52
2023/12/22 07:32:44;;;;;;;;;;;;;;;1.22;100.00;97673.15;109744;1273;23229;-53
2023/12/22 07:35:11;;;;;;;;;;;;;;;1.25;100.00;97672.80;109774;1273;22555;-46
2023/12/22 07:37:40;;;;;;;;;;;;;;;1.27;100.00;97670.38;109048;1273;23017;-46
2023/12/22 07:40:07;;;;;;;;;;;;;;;1.29;100.00;97664.38;109788;1268;22439;-48
2023/12/22 07:42:33;;;;;;;;;;;;;;;1.30;100.00;97663.34;109699;1269;22614;-52
2023/12/22 07:45:00;;;;;;;;;;;;;;;1.32;100.00;97670.01;109871;1269;22470;-53
2023/12/22 07:47:30;;;;;;;;;;;;;;;1.33;100.00;97667.27;109724;1269;22552;-47
2023/12/22 07:49:58;;;;;;;;;;;;;;;1.36;100.00;97662.80;109869;1265;23215;-53
2023/12/22 07:52:25;;;;;;;;;;;;;;;1.38;100.00;97656.06;109993;1269;23894;-53
2023/12/22 07:54:52;;;;;;;;;;;;;;;1.41;100.00;97648.85;109978;1268;22477;-53
2023/12/22 07:57:19;;;;;;;;;;;;;;;1.46;100.00;97646.77;109947;1269;22465;-47
2023/12/22 07:59:45;;;;;;;;;;;;;;;1.51;100.00;97644.33;109915;1265;22530;-53
2023/12/22 08:02:12;;;;;;;;;;;;;;;1.56;100.00;97631.06;109333;1268;24427;-53
2023/12/22 08:04:42;;;;;;;;;;;;;;;1.60;100.00;97627.77;109049;1273;24522;-47
2023/12/22 08:07:23;;;;;;;;;;;;;;;1.64;100.00;97622.60;108491;1273;22513;-46
2023/12/22 08:10:08;;;;;;;;;;;;;;;1.71;100.00;97619.11;108760;1278;22576;-53
2023/12/22 08:12:42;;;;;;;;;;;;;;;1.76;100.00;97615.80;108373;1275;22567;-48
2023/12/22 08:15:18;;;;;;;;;;;;;;;1.82;100.00;97604.23;108831;1278;22618;-53
2023/12/22 08:18:04;;;;;;;;;;;;;;;1.88;100.00;97602.64;108919;1273;22507;-54
2023/12/22 08:20:49;;;;;;;;;;;;;;;1.94;100.00;97603.27;109209;1275;22506;-53
2023/12/22 08:23:30;;;;;;;;;;;;;;;1.99;100.00;97595.85;108621;1274;22523;-48
2023/12/22 08:26:01;;;;;;;;;;;;;;;2.04;100.00;97593.05;108547;1273;22545;-47
2023/12/22 08:28:28;;;;;;;;;;;;;;;2.07;100.00;97595.77;109142;1261;23265;-52
2023/12/22 08:30:55;;;;;;;;;;;;;;;2.10;100.00;97590.59;108663;1270;22505;-48
2023/12/22 08:33:21;;;;;;;;;;;;;;;2.12;100.00;97586.45;109530;1273;22881;-47
2023/12/22 08:35:49;;;;;;;;;;;;;;;2.15;100.00;97579.38;109751;1268;23142;-50
2023/12/22 08:38:18;;;;;;;;;;;;;;;2.16;100.00;97583.15;108486;1268;22534;-46
2023/12/22 08:40:46;;;;;;;;;;;;;;;2.18;100.00;97573.15;108590;1273;25104;-47
2023/12/22 08:43:13;;;;;;;;;;;;;;;2.19;100.00;97570.37;108009;1269;22515;-52
2023/12/22 08:45:39;;;;;;;;;;;;;;;2.20;100.00;97566.23;109028;1272;22513;-48
2023/12/22 08:48:07;;;;;;;;;;;;;;;2.21;100.00;97567.45;108206;1269;22632;-46
2023/12/22 08:50:36;;;;;;;;;;;;;;;2.24;100.00;97563.78;109655;1272;23030;-46
2023/12/22 08:53:03;;;;;;;;;;;;;;;2.27;100.00;97560.84;109527;1269;22519;-54
2023/12/22 08:55:30;;;;;;;;;;;;;;;2.31;100.00;97556.48;108754;1268;22498;-53
2023/12/22 08:57:58;;;;;;;;;;;;;;;2.33;100.00;97550.30;108153;1275;22669;-46
2023/12/22 09:00:30;;;;;;;;;;;;;;;2.36;100.00;97549.05;109426;1262;22497;-53
2023/12/22 09:02:57;;;;;;;;;;;;;;;2.39;100.00;97538.18;109847;1268;22457;-47
2023/12/22 09:05:32;;;;;;;;;;;;;;;2.43;100.00;97536.58;109782;1272;22446;-47
2023/12/22 09:07:59;;;;;;;;;;;;;;;2.48;100.00;97517.09;109843;1269;22431;-47
2023/12/22 09:10:32;;;;;;;;;;;;;;;2.55;100.00;97510.12;109719;1269;23304;-47
2023/12/22 09:12:59;;;;;;;;;;;;;;;2.59;100.00;97509.36;109677;1268;23168;-46
2023/12/22 09:15:26;;;;;;;;;;;;;;;2.65;100.00;97509.98;109830;1268;22690;-46
2023/12/22 09:17:55;;;;;;;;;;;;;;;2.72;100.00;97503.36;109666;1272;22468;-47
2023/12/22 09:20:30;;;;;;;;;;;;;;;2.79;100.00;97497.75;109861;1276;22468;-48
2023/12/22 09:22:56;;;;;;;;;;;;;;;2.86;100.00;97496.98;109600;1272;22472;-46
2023/12/22 09:25:23;;;;;;;;;;;;;;;2.90;100.00;97503.29;109611;1272;22472;-46
2023/12/22 09:27:50;;;;;;;;;;;;;;;2.94;100.00;97501.17;109571;1264;22470;-52
2023/12/22 09:30:17;;;;;;;;;;;;;;;2.99;100.00;97499.38;109812;1268;22507;-52
2023/12/22 09:32:44;;;;;;;;;;;;;;;3.05;100.00;97495.51;109888;1275;23059;-53
2023/12/22 09:35:17;;;;;;;;;;;;;;;3.09;100.00;97495.43;109905;1272;22476;-52
2023/12/22 09:37:50;;;;;;;;;;;;;;;3.16;100.00;97493.45;109509;1272;22515;-49
2023/12/22 09:40:18;;;;;;;;;;;;;;;3.25;100.00;97490.55;109801;1270;22476;-47
2023/12/22 09:42:44;;;;;;;;;;;;;;;3.31;100.00;97490.28;109855;1272;22448;-46
2023/12/22 09:45:14;;;;;;;;;;;;;;;3.38;100.00;97488.63;109593;1273;22563;-53
2023/12/22 09:47:49;;;;;;;;;;;;;;;3.45;100.00;97478.86;109581;1273;22433;-52
2023/12/22 09:50:16;;;;;;;;;;;;;;;3.52;100.00;97467.38;109760;1272;22490;-53
2023/12/22 09:52:46;;;;;;;;;;;;;;;3.58;100.00;97471.24;109813;1272;23334;-53
2023/12/22 09:55:31;;;;;;;;;;;;;;;3.62;100.00;97467.04;108906;1270;22478;-52
2023/12/22 10:14:22;;;;;;;;;;;;;;;4.01;100.00;97428.39;109885;1279;22924;-53
2023/12/22 10:24:46;;;;;;;;;;;;;;;4.14;100.00;97399.30;109675;1275;22474;-47
2023/12/22 10:27:15;;;;;;;;;;;;;;;4.18;100.00;97403.20;109834;1268;23127;-46
2023/12/22 10:29:41;;;;;;;;;;;;;;;4.21;100.00;97396.06;109655;1272;23185;-52
2023/12/22 10:32:08;;;;;;;;;;;;;;;4.24;100.00;97392.56;109230;1275;22511;-47
2023/12/22 10:34:37;;;;;;;;;;;;;;;4.27;100.00;97386.80;108432;1275;22580;-54
2023/12/22 10:37:04;;;;;;;;;;;;;;;4.32;100.00;97392.05;109581;1272;23404;-52
2023/12/22 10:39:31;;;;;;;;;;;;;;;4.37;100.00;97391.25;109527;1272;22613;-52
2023/12/22 10:41:58;;;;;;;;;;;;;;;4.41;100.00;97398.59;109596;1272;152833;-46
2023/12/22 10:44:25;;;;;;;;;;;;;;;4.43;100.00;97401.31;109367;1269;23359;-52
2023/12/22 10:46:52;;;;;;;;;;;;;;;4.44;100.00;97408.69;109599;1272;22511;-52
2023/12/22 10:49:19;;;;;;;;;;;;;;;4.43;100.00;97409.23;109743;1272;22478;-52
2023/12/22 10:51:46;;;;;;;;;;;;;;;4.42;100.00;97405.46;109796;1276;22869;-52
2023/12/22 10:54:13;;;;;;;;;;;;;;;4.42;100.00;97397.38;109762;1273;22944;-52
2023/12/22 10:56:40;;;;;;;;;;;;;;;4.42;100.00;97387.01;109762;1269;23194;-52
2023/12/22 10:59:07;;;;;;;;;;;;;;;4.43;100.00;97375.94;109873;1271;22438;-53
2023/12/22 11:01:36;;;;;;;;;;;;;;;4.43;100.00;97375.42;109818;1262;22474;-53
2023/12/22 11:04:05;;;;;;;;;;;;;;;4.44;100.00;97368.83;109848;1278;23166;-52
2023/12/22 11:06:36;;;;;;;;;;;;;;;4.45;100.00;97364.33;109838;1279;22444;-52
2023/12/22 11:09:07;;;;;;;;;;;;;;;4.45;100.00;97361.91;109891;1272;23491;-52
2023/12/22 11:11:34;;;;;;;;;;;;;;;4.45;100.00;97361.92;109899;1279;22476;-53
2023/12/22 11:14:00;;;;;;;;;;;;;;;4.46;100.00;97359.13;109870;1278;23413;-53
2023/12/22 11:16:28;;;;;;;;;;;;;;;4.47;100.00;97355.84;109135;1279;25542;-48
2023/12/22 11:18:55;;;;;;;;;;;;;;;4.48;100.00;97352.02;109865;1272;23078;-47
2023/12/22 11:21:22;;;;;;;;;;;;;;;4.49;100.00;97346.30;109793;1275;23878;-47
2023/12/22 11:23:50;;;;;;;;;;;;;;;4.51;100.00;97336.73;109818;1279;22547;-52
2023/12/22 11:26:18;;;;;;;;;;;;;;;4.53;100.00;97330.67;109756;1271;22425;-52
2023/12/22 11:28:45;;;;;;;;;;;;;;;4.54;100.00;97328.04;109862;1279;22454;-53
2023/12/22 11:31:12;;;;;;;;;;;;;;;4.56;100.00;97323.85;109829;1269;22531;-53
2023/12/22 11:33:46;;;;;;;;;;;;;;;4.58;100.00;97313.29;109837;1270;22491;-52
2023/12/22 11:36:31;;;;;;;;;;;;;;;4.60;100.00;97312.39;109475;1275;22603;-47
2023/12/22 11:38:57;;;;;;;;;;;;;;;4.60;100.00;97307.54;109882;1268;23626;-47
2023/12/22 11:41:24;;;;;;;;;;;;;;;4.60;100.00;97305.13;109841;1272;23286;-46
2023/12/22 11:43:58;;;;;;;;;;;;;;;4.60;100.00;97301.34;109711;1265;22476;-47
2023/12/22 11:46:25;;;;;;;;;;;;;;;4.60;100.00;97305.98;109816;1263;22436;-47
2023/12/22 11:48:52;;;;;;;;;;;;;;;4.61;100.00;97298.72;109752;1279;22942;-46
2023/12/22 11:51:19;;;;;;;;;;;;;;;4.62;100.00;97294.73;109969;1272;23218;-49
2023/12/22 11:53:45;;;;;;;;;;;;;;;4.63;100.00;97292.62;110005;1279;23337;-53
2023/12/22 11:56:13;;;;;;;;;;;;;;;4.64;100.00;97285.00;109215;1279;24200;-53
2023/12/22 11:58:39;;;;;;;;;;;;;;;4.66;100.00;97286.02;109384;1279;22989;-53
2023/12/22 12:01:10;;;;;;;;;;;;;;;4.67;100.00;97281.49;109051;1279;23171;-53
2023/12/22 12:03:39;;;;;;;;;;;;;;;4.68;100.00;97279.53;108842;1279;24483;-53
2023/12/22 12:06:16;;;;;;;;;;;;;;;4.68;100.00;97276.08;108452;1278;23268;-47
2023/12/22 12:08:43;;;;;;;;;;;;;;;4.68;100.00;97280.73;107562;1280;22585;-52
2023/12/22 12:11:10;;;;;;;;;;;;;;;4.67;100.00;97281.29;107340;1273;22521;-52
2023/12/22 12:13:39;;;;;;;;;;;;;;;4.65;100.00;97277.39;107621;1279;22531;-48
2023/12/22 12:16:06;;;;;;;;;;;;;;;4.62;100.00;97271.40;108660;1279;22559;-48
2023/12/22 12:18:33;;;;;;;;;;;;;;;4.60;100.00;97268.02;109132;1280;23335;-46
2023/12/22 12:21:00;;;;;;;;;;;;;;;4.60;100.00;97261.64;109190;1273;22512;-47
2023/12/22 12:23:27;;;;;;;;;;;;;;;4.61;100.00;97266.79;108952;1278;24186;-53
2023/12/22 12:25:54;;;;;;;;;;;;;;;4.61;100.00;97265.73;109002;1279;23810;-48
2023/12/22 12:28:25;;;;;;;;;;;;;;;4.62;100.00;97264.49;109951;1279;22571;-48
2023/12/22 12:30:56;;;;;;;;;;;;;;;4.62;100.00;97265.36;110011;1280;22461;-53
2023/12/22 12:33:23;;;;;;;;;;;;;;;4.63;100.00;97266.70;109973;1280;22417;-47
2023/12/22 12:35:50;;;;;;;;;;;;;;;4.63;100.00;97266.71;109902;1280;22533;-53
2023/12/22 12:38:28;;;;;;;;;;;;;;;4.63;100.00;97263.61;109617;1279;22554;-48
2023/12/22 12:40:54;;;;;;;;;;;;;;;4.64;100.00;97253.40;109953;1272;22454;-47
2023/12/22 12:43:21;;;;;;;;;;;;;;;4.64;100.00;97252.73;109954;1280;22538;-46
2023/12/22 12:45:48;;;;;;;;;;;;;;;4.64;100.00;97247.20;107559;1280;23083;-48
2023/12/22 12:48:15;;;;;;;;;;;;;;;4.65;100.00;97239.94;107805;1279;22526;-47
2023/12/22 12:50:43;;;;;;;;;;;;;;;4.65;100.00;97235.43;107650;1279;24255;-48
2023/12/22 12:53:09;;;;;;;;;;;;;;;4.66;100.00;97236.80;108678;1280;23351;-48
2023/12/22 12:55:36;;;;;;;;;;;;;;;4.67;100.00;97231.06;109951;1266;22468;-46
2023/12/22 12:58:03;;;;;;;;;;;;;;;4.68;100.00;97224.83;109494;1279;22564;-47
2023/12/22 13:00:30;;;;;;;;;;;;;;;4.69;100.00;97226.17;110078;1279;22592;-52
2023/12/22 13:03:02;;;;;;;;;;;;;;;4.69;100.00;97224.10;110085;1269;22501;-46
2023/12/22 13:05:29;;;;;;;;;;;;;;;4.69;100.00;97214.44;110098;1269;22433;-53
2023/12/22 13:08:11;;;;;;;;;;;;;;;4.68;100.00;97210.13;110084;1269;22469;-53
2023/12/22 13:10:38;;;;;;;;;;;;;;;4.69;100.00;97211.15;110106;1279;23396;-54
2023/12/22 13:13:05;;;;;;;;;;;;;;;4.69;100.00;97212.17;110029;1269;22518;-47
2023/12/22 13:15:32;;;;;;;;;;;;;;;4.71;100.00;97214.57;110032;1279;23262;-53
2023/12/22 13:17:59;;;;;;;;;;;;;;;4.73;100.00;97211.23;110035;1280;23418;-52
2023/12/22 13:20:25;;;;;;;;;;;;;;;4.74;100.00;97216.21;110042;1279;22645;-46
2023/12/22 13:22:52;;;;;;;;;;;;;;;4.74;100.00;97216.20;109940;1277;22453;-51
2023/12/22 13:25:21;;;;;;;;;;;;;;;4.74;100.00;97219.98;108220;1269;25432;-46
2023/12/22 13:27:48;;;;;;;;;;;;;;;4.73;100.00;97216.90;107402;1265;25904;-47
2023/12/22 13:30:15;;;;;;;;;;;;;;;4.72;100.00;97208.48;108311;1272;22711;-47
2023/12/22 13:32:42;;;;;;;;;;;;;;;4.72;100.00;97207.95;107281;1279;24570;-52
2023/12/22 13:35:09;;;;;;;;;;;;;;;4.72;100.00;97207.64;107235;1279;22516;-47
2023/12/22 13:37:40;;;;;;;;;;;;;;;4.72;100.00;97210.58;107342;1279;23402;-46
2023/12/22 13:40:08;;;;;;;;;;;;;;;4.71;100.00;97206.78;107114;1269;24357;-53
2023/12/22 13:42:37;;;;;;;;;;;;;;;4.71;100.00;97204.72;106788;1280;22573;-47
2023/12/22 13:45:04;;;;;;;;;;;;;;;4.72;100.00;97209.17;107192;1276;22533;-53
2023/12/22 13:47:33;;;;;;;;;;;;;;;4.73;100.00;97208.82;107287;1280;23318;-49
2023/12/22 13:50:00;;;;;;;;;;;;;;;4.73;100.00;97204.14;106749;1280;22512;-49
2023/12/22 13:52:28;;;;;;;;;;;;;;;4.73;100.00;97201.73;107236;1280;25221;-46
2023/12/22 13:54:56;;;;;;;;;;;;;;;4.71;100.00;97200.21;107127;1272;25590;-52
2023/12/22 13:57:23;;;;;;;;;;;;;;;4.71;100.00;97201.96;107227;1268;22500;-48
2023/12/22 13:59:52;;;;;;;;;;;;;;;4.69;100.00;97200.95;107354;1279;22512;-52
2023/12/22 14:02:20;;;;;;;;;;;;;;;4.68;100.00;97203.92;107402;1272;25427;-54
2023/12/22 14:04:46;;;;;;;;;;;;;;;4.67;100.00;97205.33;106812;1272;25306;-47
2023/12/22 14:07:13;;;;;;;;;;;;;;;4.65;100.00;97197.63;106732;1280;23085;-54
2023/12/22 14:09:40;;;;;;;;;;;;;;;4.63;100.00;97201.46;107655;1278;25391;-53
2023/12/22 14:12:07;;;;;;;;;;;;;;;4.61;100.00;97205.31;107901;1277;23343;-52
2023/12/22 14:14:42;;;;;;;;;;;;;;;4.60;100.00;97208.97;109040;1278;22484;-53
2023/12/22 14:17:08;;;;;;;;;;;;;;;4.61;100.00;97211.37;108237;1269;23008;-53
2023/12/22 14:19:35;;;;;;;;;;;;;;;4.60;100.00;97207.09;107140;1268;22629;-52
2023/12/22 14:22:02;;;;;;;;;;;;;;;4.59;100.00;97204.34;106792;1280;24478;-53
2023/12/22 14:24:28;;;;;;;;;;;;;;;4.59;100.00;97203.65;108250;1279;25297;-52
2023/12/22 14:26:55;;;;;;;;;;;;;;;4.58;100.00;97200.05;107692;1272;22507;-53
2023/12/22 14:29:23;;;;;;;;;;;;;;;4.58;100.00;97195.05;107618;1279;25462;-52
2023/12/22 14:31:51;;;;;;;;;;;;;;;4.58;100.00;97189.86;107149;1279;25373;-53
2023/12/22 14:34:18;;;;;;;;;;;;;;;4.58;100.00;97197.11;108211;1279;26657;-52
2023/12/22 14:36:45;;;;;;;;;;;;;;;4.58;100.00;97204.19;107440;1279;25327;-52
2023/12/22 14:39:13;;;;;;;;;;;;;;;4.58;100.00;97209.71;107563;1276;25318;-53
2023/12/22 14:41:41;;;;;;;;;;;;;;;4.58;100.00;97215.24;107587;1269;22589;-53
2023/12/22 14:44:08;;;;;;;;;;;;;;;4.57;100.00;97214.22;107153;1280;22515;-53
2023/12/22 14:46:39;;;;;;;;;;;;;;;4.56;100.00;97210.80;106832;1269;25328;-53
2023/12/22 14:49:06;;;;;;;;;;;;;;;4.57;100.00;97209.05;107205;1271;22834;-51
2023/12/22 14:51:38;;;;;;;;;;;;;;;4.56;100.00;97204.23;107391;1272;22523;-53
2023/12/22 14:54:06;;;;;;;;;;;;;;;4.56;100.00;97206.15;107576;1279;22512;-53
2023/12/22 14:56:32;;;;;;;;;;;;;;;4.55;100.00;97209.77;106758;1280;25392;-55
2023/12/22 14:59:00;;;;;;;;;;;;;;;4.53;100.00;97215.00;107094;1280;25341;-52
2023/12/22 15:01:27;;;;;;;;;;;;;;;4.53;100.00;97215.89;107371;1279;24448;-48
2023/12/22 15:03:54;;;;;;;;;;;;;;;4.52;100.00;97216.77;107110;1269;24180;-55
